createdAt,value
2022-08-21T00:00:14.037Z,1.60
2022-08-21T00:02:55.773Z,1.40
2022-08-21T00:05:24.203Z,1.50
2022-08-21T00:07:51.401Z,1.30
2022-08-21T00:10:19.236Z,1.55
2022-08-21T00:12:46.682Z,1.45
2022-08-21T00:15:18.579Z,1.20
2022-08-21T00:17:45.523Z,1.73
2022-08-21T00:20:15.285Z,1.55
2022-08-21T00:22:43.020Z,1.30
2022-08-21T00:25:11.041Z,1.50
2022-08-21T00:27:38.220Z,1.90
2022-08-21T00:30:07.504Z,2.30
2022-08-21T00:32:34.790Z,1.90
2022-08-21T00:35:01.679Z,1.63
2022-08-21T00:37:28.605Z,1.73
2022-08-21T00:39:57.936Z,2.28
2022-08-21T00:42:25.131Z,2.15
2022-08-21T00:44:52.192Z,1.80
2022-08-21T00:47:20.315Z,1.40
2022-08-21T00:49:47.544Z,1.60
2022-08-21T00:52:20.107Z,1.52
2022-08-21T00:54:48.109Z,1.50
2022-08-21T00:57:24.878Z,1.90
2022-08-21T00:59:54.661Z,1.70
2022-08-21T01:02:21.628Z,2.10
2022-08-21T01:04:48.729Z,1.95
2022-08-21T01:07:16.528Z,2.13
2022-08-21T01:09:44.207Z,1.85
2022-08-21T01:12:12.598Z,1.50
2022-08-21T01:14:41.389Z,1.67
2022-08-21T01:17:09.027Z,1.70
2022-08-21T01:19:35.971Z,1.85
2022-08-21T01:22:03.268Z,1.60
2022-08-21T01:24:32.473Z,1.70
2022-08-21T01:27:01.137Z,1.75
2022-08-21T01:29:40.562Z,2.03
2022-08-21T01:32:12.502Z,1.95
2022-08-21T01:34:42.153Z,2.13
2022-08-21T01:37:10.049Z,1.88
2022-08-21T01:39:38.216Z,1.70
2022-08-21T01:42:05.885Z,2.08
2022-08-21T01:44:33.354Z,1.98
2022-08-21T01:47:02.583Z,2.55
2022-08-21T01:49:29.497Z,2.80
2022-08-21T01:51:56.492Z,2.28
2022-08-21T01:54:23.534Z,2.42
2022-08-21T01:56:53.057Z,2.08
2022-08-21T01:59:21.487Z,2.30
2022-08-21T02:01:48.387Z,2.20
2022-08-21T02:04:15.332Z,1.95
2022-08-21T02:06:43.047Z,2.60
2022-08-21T02:09:12.024Z,2.25
2022-08-21T02:11:42.245Z,2.42
2022-08-21T02:14:13.868Z,2.40
2022-08-21T02:16:42.424Z,1.97
2022-08-21T02:19:10.121Z,1.77
2022-08-21T02:21:36.950Z,1.73
2022-08-21T02:24:04.347Z,1.95
2022-08-21T02:26:31.376Z,1.63
2022-08-21T02:28:58.297Z,1.75
2022-08-21T02:31:25.603Z,2.00
2022-08-21T02:33:52.656Z,1.80
2022-08-21T02:36:19.896Z,1.27
2022-08-21T02:38:46.984Z,1.73
2022-08-21T02:41:17.856Z,1.95
2022-08-21T02:43:45.140Z,2.05
2022-08-21T02:46:14.509Z,1.33
2022-08-21T02:48:41.990Z,1.88
2022-08-21T02:51:17.273Z,1.90
2022-08-21T02:53:44.828Z,1.77
2022-08-21T02:56:14.783Z,1.80
2022-08-21T02:58:48.902Z,1.63
2022-08-21T03:01:16.947Z,2.30
2022-08-21T03:03:46.203Z,1.60
2022-08-21T03:06:16.059Z,1.80
2022-08-21T03:08:45.725Z,1.70
2022-08-21T03:11:14.248Z,1.48
2022-08-21T03:13:42.841Z,1.55
2022-08-21T03:16:10.654Z,1.50
2022-08-21T03:18:38.201Z,1.60
2022-08-21T03:21:07.632Z,2.15
2022-08-21T03:23:34.546Z,1.45
2022-08-21T03:26:01.454Z,1.67
2022-08-21T03:28:28.888Z,1.65
2022-08-21T03:30:56.293Z,2.17
2022-08-21T03:33:23.734Z,1.55
2022-08-21T03:36:09.947Z,1.73
2022-08-21T03:38:38.326Z,1.75
2022-08-21T03:41:06.772Z,1.40
2022-08-21T03:43:35.184Z,1.48
2022-08-21T03:46:04.330Z,1.58
2022-08-21T03:48:31.656Z,1.73
2022-08-21T03:50:58.741Z,1.85
2022-08-21T03:53:26.180Z,1.40
2022-08-21T03:55:54.249Z,1.50
2022-08-21T03:58:25.407Z,1.73
2022-08-21T04:00:55.080Z,1.35
2022-08-21T04:03:22.601Z,1.73
2022-08-21T04:05:49.523Z,1.33
2022-08-21T04:08:19.602Z,1.40
2022-08-21T04:10:49.440Z,1.55
2022-08-21T04:13:16.576Z,1.50
2022-08-21T04:15:43.697Z,1.75
2022-08-21T04:18:11.364Z,1.48
2022-08-21T04:20:39.351Z,1.70
2022-08-21T04:23:06.450Z,1.90
2022-08-21T04:25:33.501Z,1.38
2022-08-21T04:28:00.500Z,1.33
2022-08-21T04:30:28.192Z,1.40
2022-08-21T04:32:58.084Z,1.40
2022-08-21T04:35:27.247Z,1.30
2022-08-21T04:37:54.185Z,1.55
2022-08-21T04:40:22.966Z,1.50
2022-08-21T04:43:11.772Z,1.17
2022-08-21T04:45:42.844Z,2.90
2022-08-21T04:48:14.052Z,1.40
2022-08-21T04:50:44.026Z,1.33
2022-08-21T04:53:29.659Z,1.17
2022-08-21T04:55:57.414Z,1.50
2022-08-21T04:58:27.321Z,1.27
2022-08-21T05:00:56.980Z,1.10
2022-08-21T05:03:24.288Z,2.00
2022-08-21T05:05:51.411Z,1.70
2022-08-21T05:08:22.384Z,1.00
2022-08-21T05:10:49.296Z,1.38
2022-08-21T05:13:17.097Z,1.42
2022-08-21T05:15:43.989Z,1.48
2022-08-21T05:18:11.272Z,1.73
2022-08-21T05:20:38.307Z,1.60
2022-08-21T05:23:13.537Z,1.15
2022-08-21T05:25:41.128Z,1.08
2022-08-21T05:28:08.767Z,1.17
2022-08-21T05:30:37.214Z,1.25
2022-08-21T05:33:06.948Z,0.88
2022-08-21T05:35:34.500Z,1.25
2022-08-21T05:38:01.731Z,1.50
2022-08-21T05:40:28.833Z,1.65
2022-08-21T05:42:56.844Z,1.58
2022-08-21T05:45:41.342Z,1.00
2022-08-21T05:48:24.788Z,1.25
2022-08-21T05:50:53.443Z,1.70
2022-08-21T05:53:23.168Z,1.80
2022-08-21T05:55:51.041Z,1.15
2022-08-21T05:58:23.715Z,1.17
2022-08-21T06:00:51.875Z,1.05
2022-08-21T06:03:22.941Z,1.00
2022-08-21T06:05:49.936Z,1.02
2022-08-21T06:08:18.069Z,1.40
2022-08-21T06:10:46.098Z,1.10
2022-08-21T06:13:13.760Z,1.38
2022-08-21T06:15:41.037Z,2.28
2022-08-21T06:18:08.480Z,1.27
2022-08-21T06:20:35.523Z,1.15
2022-08-21T06:23:02.932Z,1.48
2022-08-21T06:25:30.377Z,1.02
2022-08-21T06:28:08.892Z,1.25
2022-08-21T06:30:37.122Z,1.00
2022-08-21T06:33:04.520Z,1.42
2022-08-21T06:35:31.435Z,1.35
2022-08-21T06:37:58.630Z,1.85
2022-08-21T06:40:27.515Z,2.50
2022-08-21T06:42:59.376Z,2.35
2022-08-21T06:45:31.702Z,2.97
2022-08-21T06:47:59.500Z,3.40
2022-08-21T06:50:26.424Z,3.28
2022-08-21T06:53:05.507Z,3.53
2022-08-21T06:55:33.095Z,3.05
2022-08-21T06:58:00.359Z,3.03
2022-08-21T07:00:27.582Z,3.22
2022-08-21T07:02:54.567Z,2.92
2022-08-21T07:05:21.700Z,3.03
2022-08-21T07:07:49.188Z,2.60
2022-08-21T07:10:21.978Z,2.75
2022-08-21T07:12:50.714Z,3.33
2022-08-21T07:15:18.329Z,3.03
2022-08-21T07:17:45.336Z,2.00
2022-08-21T07:20:12.489Z,2.22
2022-08-21T07:22:41.764Z,2.40
2022-08-21T07:25:09.578Z,2.22
2022-08-21T07:27:36.647Z,2.03
2022-08-21T07:30:04.918Z,2.22
2022-08-21T07:32:31.800Z,2.20
2022-08-21T07:34:58.705Z,2.25
2022-08-21T07:37:25.610Z,2.03
2022-08-21T07:39:52.911Z,2.45
2022-08-21T07:42:19.884Z,2.60
2022-08-21T07:44:46.848Z,1.88
2022-08-21T07:47:16.409Z,1.58
2022-08-21T07:50:04.462Z,1.40
2022-08-21T07:52:32.085Z,1.20
2022-08-21T07:55:04.131Z,1.20
2022-08-21T07:57:33.133Z,1.35
2022-08-21T08:00:00.084Z,1.50
2022-08-21T08:02:31.617Z,0.95
2022-08-21T08:05:04.588Z,1.15
2022-08-21T08:07:31.676Z,1.42
2022-08-21T08:09:59.368Z,1.27
2022-08-21T08:12:30.331Z,1.20
2022-08-21T08:14:58.861Z,1.10
2022-08-21T08:17:26.113Z,1.92
2022-08-21T08:19:53.472Z,1.45
2022-08-21T08:22:24.701Z,1.30
2022-08-21T08:24:53.368Z,1.20
2022-08-21T08:27:21.168Z,0.95
2022-08-21T08:29:48.514Z,0.93
2022-08-21T08:32:16.003Z,1.15
2022-08-21T08:34:42.952Z,1.25
2022-08-21T08:37:11.175Z,1.42
2022-08-21T08:39:39.075Z,0.98
2022-08-21T08:42:32.606Z,1.35
2022-08-21T08:45:11.611Z,1.40
2022-08-21T08:47:43.107Z,1.20
2022-08-21T08:50:38.172Z,1.40
2022-08-21T08:53:11.879Z,1.45
2022-08-21T08:55:41.667Z,1.20
2022-08-21T08:58:17.980Z,1.73
2022-08-21T09:00:48.294Z,1.23
2022-08-21T09:03:16.922Z,1.50
2022-08-21T09:05:56.490Z,0.95
2022-08-21T09:08:55.393Z,1.13
2022-08-21T09:11:38.132Z,1.40
2022-08-21T09:14:25.281Z,1.50
2022-08-21T09:17:30.013Z,1.60
2022-08-21T09:20:06.953Z,1.35
2022-08-21T09:22:52.307Z,1.58
2022-08-21T09:25:26.625Z,1.20
2022-08-21T09:27:53.907Z,1.50
2022-08-21T09:30:26.954Z,1.33
2022-08-21T09:32:53.861Z,1.90
2022-08-21T09:35:23.640Z,1.13
2022-08-21T09:38:03.069Z,1.20
2022-08-21T09:40:44.466Z,1.10
2022-08-21T09:43:24.036Z,0.93
2022-08-21T09:46:06.848Z,1.02
2022-08-21T09:48:48.238Z,1.42
2022-08-21T09:51:27.037Z,0.87
2022-08-21T09:53:58.899Z,1.23
2022-08-21T09:56:49.230Z,1.40
2022-08-21T09:59:20.020Z,0.98
2022-08-21T10:01:50.247Z,1.55
2022-08-21T10:04:22.596Z,1.52
2022-08-21T10:06:49.728Z,1.55
2022-08-21T10:09:21.757Z,1.30
2022-08-21T10:14:50.899Z,1.02
2022-08-21T10:17:32.669Z,1.75
2022-08-21T10:20:07.864Z,1.17
2022-08-21T10:22:48.123Z,1.38
2022-08-21T10:25:27.136Z,1.20
2022-08-21T10:28:19.117Z,1.23
2022-08-21T10:31:04.113Z,0.98
2022-08-21T10:33:45.741Z,1.13
2022-08-21T10:36:32.433Z,2.00
2022-08-21T10:39:35.959Z,1.42
2022-08-21T10:42:28.541Z,1.30
2022-08-21T10:45:27.255Z,1.38
2022-08-21T10:48:08.977Z,1.23
2022-08-21T10:51:01.044Z,1.30
2022-08-21T10:53:51.604Z,0.90
2022-08-21T10:56:23.048Z,1.05
2022-08-21T10:59:24.620Z,1.50
2022-08-21T11:02:11.143Z,0.98
2022-08-21T11:04:57.735Z,1.30
2022-08-21T11:07:36.329Z,1.13
2022-08-21T11:10:13.739Z,1.10
2022-08-21T11:13:00.330Z,1.17
2022-08-21T11:15:44.581Z,1.23
2022-08-21T11:18:40.023Z,1.33
2022-08-21T11:21:29.997Z,0.90
2022-08-21T11:24:05.747Z,0.98
2022-08-21T11:26:40.021Z,1.30
2022-08-21T11:29:25.509Z,0.90
2022-08-21T11:31:52.332Z,0.88
2022-08-21T11:34:43.707Z,1.23
2022-08-21T11:37:55.611Z,0.70
2022-08-21T11:40:49.295Z,0.77
2022-08-21T11:43:37.457Z,0.55
2022-08-21T11:46:21.364Z,0.68
2022-08-21T11:49:01.906Z,0.98
2022-08-21T11:51:47.757Z,1.02
2022-08-21T11:54:29.808Z,1.13
2022-08-21T11:57:06.440Z,0.90
2022-08-21T11:59:46.390Z,0.70
2022-08-21T12:02:16.978Z,1.10
2022-08-21T12:04:53.033Z,1.15
2022-08-21T12:07:37.197Z,0.75
2022-08-21T12:10:08.772Z,0.93
2022-08-21T12:12:38.551Z,1.17
2022-08-21T12:15:20.471Z,0.80
2022-08-21T12:17:58.178Z,0.50
2022-08-21T12:20:31.120Z,0.75
2022-08-21T12:23:13.174Z,0.70
2022-08-21T12:25:44.034Z,1.00
2022-08-21T12:28:14.444Z,0.82
2022-08-21T12:30:44.589Z,1.10
2022-08-21T12:33:36.203Z,1.00
2022-08-21T12:36:22.217Z,1.33
2022-08-21T12:39:03.508Z,1.00
2022-08-21T12:41:35.386Z,0.90
2022-08-21T12:44:10.079Z,0.47
2022-08-21T12:46:53.002Z,0.68
2022-08-21T12:49:33.042Z,0.93
2022-08-21T12:52:22.333Z,0.85
2022-08-21T12:54:49.404Z,0.88
2022-08-21T12:57:29.055Z,0.50
2022-08-21T13:00:02.325Z,0.80
2022-08-21T13:02:37.853Z,0.80
2022-08-21T13:05:07.960Z,0.68
2022-08-21T13:07:37.956Z,0.70
2022-08-21T13:10:15.132Z,0.65
2022-08-21T13:12:43.507Z,0.50
2022-08-21T13:15:11.019Z,0.63
2022-08-21T13:17:42.747Z,0.80
2022-08-21T13:20:20.188Z,1.10
2022-08-21T13:22:47.443Z,0.52
2022-08-21T13:25:17.101Z,1.00
2022-08-21T13:27:57.447Z,0.77
2022-08-21T13:30:24.593Z,0.90
2022-08-21T13:33:03.082Z,0.63
2022-08-21T13:35:50.927Z,0.90
2022-08-21T13:38:27.200Z,0.55
2022-08-21T13:40:58.912Z,0.70
2022-08-21T13:43:33.581Z,0.73
2022-08-21T13:46:02.472Z,1.02
2022-08-21T13:48:34.036Z,0.60
2022-08-21T13:51:01.811Z,0.88
2022-08-21T13:53:47.845Z,0.75
2022-08-21T13:56:33.791Z,0.80
2022-08-21T13:59:02.714Z,0.50
2022-08-21T14:01:50.404Z,0.98
2022-08-21T14:04:25.485Z,0.60
2022-08-21T14:06:53.391Z,1.40
2022-08-21T14:09:31.938Z,0.60
2022-08-21T14:12:18.065Z,0.80
2022-08-21T14:14:50.479Z,0.80
2022-08-21T14:17:33.951Z,0.73
2022-08-21T14:20:01.840Z,0.70
2022-08-21T14:22:42.684Z,1.00
2022-08-21T14:25:20.053Z,0.75
2022-08-21T14:28:13.851Z,1.10
2022-08-21T14:30:44.951Z,0.60
2022-08-21T14:33:19.511Z,0.95
2022-08-21T14:35:47.297Z,0.77
2022-08-21T14:38:20.532Z,0.80
2022-08-21T14:40:51.740Z,1.17
2022-08-21T14:43:20.619Z,1.00
2022-08-21T14:45:48.250Z,0.90
2022-08-21T14:48:15.471Z,0.50
2022-08-21T14:50:42.496Z,0.80
2022-08-21T14:53:11.109Z,0.90
2022-08-21T14:55:58.597Z,1.10
2022-08-21T14:58:26.245Z,1.00
2022-08-21T15:00:54.775Z,0.80
2022-08-21T15:03:22.920Z,1.00
2022-08-21T15:05:50.866Z,0.88
2022-08-21T15:08:19.045Z,0.68
2022-08-21T15:11:10.113Z,1.05
2022-08-21T15:13:33.747Z,0.75
2022-08-21T15:16:00.959Z,0.80
2022-08-21T15:18:30.564Z,1.05
2022-08-21T15:20:58.456Z,1.30
2022-08-21T15:23:25.329Z,0.98
2022-08-21T15:25:54.264Z,0.90
2022-08-21T15:28:22.159Z,1.00
2022-08-21T15:30:49.654Z,0.68
2022-08-21T15:33:16.855Z,0.90
2022-08-21T15:35:43.933Z,0.60
2022-08-21T15:38:11.409Z,0.80
2022-08-21T15:40:40.088Z,1.25
2022-08-21T15:43:30.232Z,0.95
2022-08-21T15:45:59.825Z,1.00
2022-08-21T15:48:27.110Z,1.02
2022-08-21T15:50:53.993Z,1.20
2022-08-21T15:53:20.932Z,0.82
2022-08-21T15:55:47.818Z,0.95
2022-08-21T15:58:18.079Z,1.25
2022-08-21T16:00:45.908Z,1.00
2022-08-21T16:03:17.606Z,1.00
2022-08-21T16:05:45.871Z,1.05
2022-08-21T16:08:13.046Z,0.57
2022-08-21T16:10:41.188Z,1.10
2022-08-21T16:13:15.740Z,0.80
2022-08-21T16:15:42.881Z,1.10
2022-08-21T16:18:11.069Z,1.17
2022-08-21T16:20:38.302Z,0.75
2022-08-21T16:23:05.320Z,0.45
2022-08-21T16:25:37.979Z,0.80
2022-08-21T16:28:10.386Z,0.77
2022-08-21T16:30:39.949Z,1.48
2022-08-21T16:33:08.506Z,1.00
2022-08-21T16:35:35.385Z,0.50
2022-08-21T16:38:02.607Z,0.93
2022-08-21T16:40:29.767Z,1.10
2022-08-21T16:42:56.981Z,1.27
2022-08-21T16:45:23.976Z,1.08
2022-08-21T16:47:51.401Z,0.85
2022-08-21T16:50:22.667Z,0.80
2022-08-21T16:52:49.958Z,0.77
2022-08-21T16:55:17.092Z,1.40
2022-08-21T16:57:44.457Z,0.90
2022-08-21T17:00:13.294Z,1.58
2022-08-21T17:02:45.206Z,1.40
2022-08-21T17:05:14.038Z,1.30
2022-08-21T17:07:41.766Z,1.48
2022-08-21T17:10:12.221Z,0.85
2022-08-21T17:12:40.776Z,0.68
2022-08-21T17:15:21.330Z,1.00
2022-08-21T17:17:49.283Z,0.73
2022-08-21T17:20:16.811Z,1.70
2022-08-21T17:22:43.778Z,2.30
2022-08-21T17:25:10.801Z,2.33
2022-08-21T17:27:38.860Z,0.75
2022-08-21T17:30:07.548Z,1.20
2022-08-21T17:32:34.638Z,1.13
2022-08-21T17:48:28.155Z,1.00
2022-08-21T17:50:55.307Z,1.27
2022-08-21T17:53:22.412Z,1.40
2022-08-21T17:55:50.192Z,1.00
2022-08-21T17:58:17.361Z,1.10
2022-08-21T18:00:46.362Z,0.55
2022-08-21T18:03:19.467Z,1.35
2022-08-21T18:05:48.659Z,2.78
2022-08-21T18:08:15.941Z,1.23
2022-08-21T18:10:46.244Z,1.25
2022-08-21T18:13:17.277Z,1.10
2022-08-21T18:15:47.343Z,1.13
2022-08-21T18:18:14.247Z,1.17
2022-08-21T18:20:41.518Z,1.20
2022-08-21T18:23:08.600Z,1.55
2022-08-21T18:25:36.151Z,0.90
2022-08-21T18:28:06.742Z,1.00
2022-08-21T18:30:40.586Z,1.23
2022-08-21T18:33:09.400Z,1.55
2022-08-21T18:35:39.355Z,1.35
2022-08-21T18:38:06.897Z,0.75
2022-08-21T18:40:35.485Z,1.23
2022-08-21T18:43:06.511Z,1.02
2022-08-21T18:45:36.967Z,1.23
2022-08-21T18:48:08.961Z,1.00
2022-08-21T18:50:38.253Z,1.60
2022-08-21T18:53:24.203Z,1.23
2022-08-21T18:55:55.063Z,1.42
2022-08-21T18:58:25.516Z,1.20
2022-08-21T19:00:54.261Z,0.80
2022-08-21T19:03:26.069Z,1.08
2022-08-21T19:05:54.615Z,1.45
2022-08-21T19:08:28.682Z,1.20
2022-08-21T19:10:58.331Z,1.27
2022-08-21T19:13:28.379Z,0.95
2022-08-21T19:15:55.907Z,1.42
2022-08-21T19:18:27.917Z,0.98
2022-08-21T19:21:16.335Z,1.25
2022-08-21T19:23:44.525Z,1.38
2022-08-21T19:26:12.125Z,1.50
2022-08-21T19:28:47.416Z,1.42
2022-08-21T19:31:32.474Z,1.08
2022-08-21T19:34:05.455Z,1.60
2022-08-21T19:36:33.242Z,1.67
2022-08-21T19:39:00.747Z,1.00
2022-08-21T19:41:31.288Z,1.73
2022-08-21T19:44:01.895Z,2.60
2022-08-21T19:46:31.772Z,1.73
2022-08-21T19:49:00.509Z,1.50
2022-08-21T19:51:28.259Z,1.30
2022-08-21T19:53:57.197Z,1.38
2022-08-21T19:56:28.109Z,1.55
2022-08-21T19:58:55.803Z,1.08
2022-08-21T20:01:25.619Z,1.35
2022-08-21T20:03:54.703Z,1.13
2022-08-21T20:06:24.927Z,0.90
2022-08-21T20:08:54.711Z,1.38
2022-08-21T20:11:31.874Z,1.00
2022-08-21T20:14:00.687Z,1.33
2022-08-21T20:16:28.715Z,1.33
2022-08-21T20:18:55.916Z,1.40
2022-08-21T20:21:23.302Z,1.70
2022-08-21T20:23:50.180Z,1.40
2022-08-21T20:26:19.095Z,1.58
2022-08-21T20:28:46.538Z,1.45
2022-08-21T20:31:17.714Z,1.25
2022-08-21T20:33:47.004Z,1.63
2022-08-21T20:36:17.083Z,1.67
2022-08-21T20:38:44.634Z,1.40
2022-08-21T20:41:21.370Z,1.10
2022-08-21T20:43:58.808Z,1.27
2022-08-21T20:46:27.938Z,1.30
2022-08-21T20:48:55.467Z,1.00
2022-08-21T20:51:33.152Z,1.60
2022-08-21T20:54:09.777Z,1.50
2022-08-21T20:57:01.421Z,1.50
2022-08-21T20:59:34.671Z,1.10
2022-08-21T21:02:24.540Z,1.45
2022-08-21T21:05:05.409Z,1.33
2022-08-21T21:08:09.486Z,1.38
2022-08-21T21:10:42.797Z,1.40
2022-08-21T21:13:20.948Z,1.10
2022-08-21T21:15:52.245Z,1.27
2022-08-21T21:18:32.414Z,1.30
2022-08-21T21:21:09.323Z,1.27
2022-08-21T21:23:39.641Z,1.58
2022-08-21T21:26:29.236Z,1.27
2022-08-21T21:29:10.623Z,1.40
2022-08-21T21:31:37.895Z,1.67
2022-08-21T21:34:04.811Z,1.50
2022-08-21T21:36:56.290Z,1.70
2022-08-21T21:39:45.142Z,1.98
2022-08-21T21:42:17.576Z,1.27
2022-08-21T21:45:03.022Z,1.58
2022-08-21T21:48:07.039Z,1.63
2022-08-21T21:50:44.124Z,1.52
2022-08-21T21:53:40.023Z,1.80
2022-08-21T21:56:27.639Z,1.58
2022-08-21T21:59:23.799Z,1.95
2022-08-21T22:02:02.281Z,1.40
2022-08-21T22:04:34.836Z,1.80
2022-08-21T22:07:13.881Z,1.35
2022-08-21T22:09:59.983Z,1.80
2022-08-21T22:12:49.700Z,1.35
2022-08-21T22:15:26.449Z,1.85
2022-08-21T22:18:28.586Z,1.58
2022-08-21T22:21:14.557Z,1.50
2022-08-21T22:23:46.428Z,1.65
2022-08-21T22:26:20.282Z,1.25
2022-08-21T22:28:51.544Z,1.95
2022-08-21T22:31:27.806Z,1.40
2022-08-21T22:34:06.484Z,1.52
2022-08-21T22:36:44.868Z,1.33
2022-08-21T22:39:34.433Z,1.60
2022-08-21T22:42:10.882Z,1.45
2022-08-21T22:45:00.506Z,1.50
2022-08-21T22:47:41.508Z,1.92
2022-08-21T22:50:18.765Z,1.70
2022-08-21T22:52:50.229Z,1.80
2022-08-21T22:55:26.415Z,1.83
2022-08-21T22:58:12.121Z,1.70
2022-08-21T23:00:45.078Z,1.80
2022-08-21T23:03:23.191Z,1.70
2022-08-21T23:05:50.349Z,1.60
2022-08-21T23:08:37.357Z,1.77
2022-08-21T23:11:25.586Z,1.88
2022-08-21T23:13:56.120Z,2.20
2022-08-21T23:16:28.575Z,1.85
2022-08-21T23:18:58.154Z,2.03
2022-08-21T23:21:52.787Z,2.13
2022-08-21T23:24:46.658Z,1.88
2022-08-21T23:27:35.958Z,2.03
2022-08-21T23:30:12.342Z,1.67
2022-08-21T23:33:01.954Z,1.75
2022-08-21T23:36:04.237Z,1.70
2022-08-21T23:38:51.250Z,1.48
2022-08-21T23:41:34.107Z,1.80
2022-08-21T23:44:27.262Z,2.10
2022-08-21T23:49:57.580Z,2.03
2022-08-21T23:52:25.844Z,1.42
2022-08-21T23:55:39.821Z,1.90
2022-08-21T23:58:18.835Z,1.77
